Time;durP1;ratioP1;P1;durP2;ratioP2;P2;SDS_P1;SDS_P2;PMS_P1;PMS_P2;Temp;Humidity;BMP_temperature;BMP_pressure;BME280_temperature;BME280_humidity;BME280_pressure;Samples;Min_cycle;Max_cycle;Signal;HPM_P1;HPM_P2
2022/12/27 00:02:15;;;;;;;34.10;20.40;;;;;;;;;;5094585;28;20272;-56
2022/12/27 00:04:42;;;;;;;35.87;23.03;;;;;;;;;;5094248;28;20772;-58
2022/12/27 00:07:10;;;;;;;43.50;23.73;;;;;;;;;;5094422;28;20203;-58
2022/12/27 00:09:37;;;;;;;37.17;22.20;;;;;;;;;;5094332;28;20199;-56
2022/12/27 00:12:04;;;;;;;39.70;22.87;;;;;;;;;;5094499;28;20218;-56
2022/12/27 00:14:31;;;;;;;33.93;21.77;;;;;;;;;;5094417;28;20234;-56
2022/12/27 00:16:58;;;;;;;41.63;22.90;;;;;;;;;;5094511;28;20202;-58
2022/12/27 00:19:25;;;;;;;41.07;24.50;;;;;;;;;;5094404;28;20221;-56
2022/12/27 00:21:53;;;;;;;43.47;24.17;;;;;;;;;;5094068;28;20690;-55
2022/12/27 00:24:20;;;;;;;43.87;25.10;;;;;;;;;;5094137;28;20206;-58
2022/12/27 00:26:47;;;;;;;39.77;25.50;;;;;;;;;;5094229;28;20291;-56
2022/12/27 00:29:14;;;;;;;42.10;25.93;;;;;;;;;;5094238;28;20217;-55
2022/12/27 00:31:41;;;;;;;46.05;27.80;;;;;;;;;;5093997;28;20210;-56
2022/12/27 00:34:09;;;;;;;50.60;31.33;;;;;;;;;;5093940;28;20508;-55
2022/12/27 00:36:37;;;;;;;58.88;32.38;;;;;;;;;;5094254;28;20199;-56
2022/12/27 00:39:03;;;;;;;54.13;33.37;;;;;;;;;;5093911;28;20244;-56
2022/12/27 00:41:31;;;;;;;56.27;34.17;;;;;;;;;;5093916;28;20639;-59
2022/12/27 00:43:58;;;;;;;58.30;35.03;;;;;;;;;;5094182;28;20288;-58
2022/12/27 00:46:25;;;;;;;61.57;35.50;;;;;;;;;;5098163;28;20231;-58
2022/12/27 00:48:54;;;;;;;60.23;34.03;;;;;;;;;;5098149;28;20256;-56
2022/12/27 00:51:23;;;;;;;59.33;33.10;;;;;;;;;;5097964;28;20220;-59
2022/12/27 00:53:51;;;;;;;58.67;32.67;;;;;;;;;;5098225;28;20271;-59
2022/12/27 00:56:24;;;;;;;50.30;30.13;;;;;;;;;;5098134;28;20334;-58
2022/12/27 00:58:53;;;;;;;52.83;29.17;;;;;;;;;;5097945;28;20198;-59
2022/12/27 01:01:21;;;;;;;54.50;29.47;;;;;;;;;;5097855;28;20210;-59
2022/12/27 01:03:49;;;;;;;55.50;30.10;;;;;;;;;;5097991;28;20195;-59
2022/12/27 01:06:18;;;;;;;56.27;29.97;;;;;;;;;;5097685;28;20678;-59
2022/12/27 01:08:47;;;;;;;54.90;29.97;;;;;;;;;;5098010;28;20206;-58
2022/12/27 01:11:15;;;;;;;50.57;30.20;;;;;;;;;;5097956;28;20203;-58
2022/12/27 01:13:43;;;;;;;49.17;29.20;;;;;;;;;;5097981;28;20226;-57
2022/12/27 01:16:16;;;;;;;49.10;28.67;;;;;;;;;;5097619;28;20238;-59
2022/12/27 01:18:44;;;;;;;64.47;30.63;;;;;;;;;;5097584;28;20206;-58
2022/12/27 01:21:13;;;;;;;59.37;30.80;;;;;;;;;;5097428;28;20276;-59
2022/12/27 01:23:40;;;;;;;50.53;28.73;;;;;;;;;;5097533;28;20313;-60
2022/12/27 01:26:11;;;;;;;56.43;30.83;;;;;;;;;;5097625;28;20241;-58
2022/12/27 01:28:38;;;;;;;49.27;28.13;;;;;;;;;;5097671;28;20244;-54
2022/12/27 01:31:09;;;;;;;55.83;29.33;;;;;;;;;;5097224;28;20210;-58
2022/12/27 01:33:36;;;;;;;54.37;29.93;;;;;;;;;;5097289;28;20520;-58
2022/12/27 01:36:23;;;;;;;55.57;30.10;;;;;;;;;;5097323;28;20217;-58
2022/12/27 01:38:50;;;;;;;58.47;30.30;;;;;;;;;;5097170;28;20206;-58
2022/12/27 01:47:28;;;;;;;51.63;30.53;;;;;;;;;;5096987;28;20223;-59
2022/12/27 01:49:57;;;;;;;51.07;28.13;;;;;;;;;;5090539;28;20539;-59
2022/12/27 01:52:27;;;;;;;58.13;30.63;;;;;;;;;;5096023;28;20198;-57
2022/12/27 01:54:58;;;;;;;49.97;28.63;;;;;;;;;;5096061;28;20206;-57
2022/12/27 01:57:26;;;;;;;53.80;28.80;;;;;;;;;;5095949;28;20263;-59
2022/12/27 01:59:53;;;;;;;55.33;28.90;;;;;;;;;;5096720;28;20203;-58
2022/12/27 02:02:21;;;;;;;47.30;28.27;;;;;;;;;;5096625;28;20203;-59
2022/12/27 02:04:52;;;;;;;52.30;28.63;;;;;;;;;;5096887;28;20221;-58
2022/12/27 02:07:23;;;;;;;53.50;30.37;;;;;;;;;;5095873;28;20342;-59
2022/12/27 02:09:55;;;;;;;52.37;28.50;;;;;;;;;;5095829;28;20225;-57
2022/12/27 02:12:24;;;;;;;51.47;27.67;;;;;;;;;;5095938;28;20217;-56
2022/12/27 02:14:51;;;;;;;45.70;27.17;;;;;;;;;;5095481;28;20217;-58
2022/12/27 02:17:22;;;;;;;50.97;28.50;;;;;;;;;;5096569;28;20198;-59
2022/12/27 02:20:12;;;;;;;52.22;29.58;;;;;;;;;;5095680;28;20268;-59
2022/12/27 02:25:48;;;;;;;50.50;27.03;;;;;;;;;;5096102;28;20279;-55
2022/12/27 02:28:34;;;;;;;49.63;26.17;;;;;;;;;;5096227;28;20660;-59
2022/12/27 02:31:07;;;;;;;51.47;26.73;;;;;;;;;;5096142;28;20298;-57
2022/12/27 02:33:37;;;;;;;49.93;26.07;;;;;;;;;;5095198;28;20203;-59
2022/12/27 02:36:08;;;;;;;53.07;27.80;;;;;;;;;;5078541;28;20214;-60
2022/12/27 02:38:39;;;;;;;45.00;26.37;;;;;;;;;;5095457;28;20199;-58
2022/12/27 02:55:25;;;;;;;69.97;33.73;;;;;;;;;;5095874;28;20199;-59
2022/12/27 02:58:17;;;;;;;138.97;72.87;;;;;;;;;;5094701;28;20224;-57
2022/12/27 03:04:22;;;;;;;43.53;23.93;;;;;;;;;;5095496;28;20217;-59
2022/12/27 03:07:02;;;;;;;43.87;22.97;;;;;;;;;;5095318;28;20240;-59
2022/12/27 03:15:55;;;;;;;39.90;22.23;;;;;;;;;;5094809;28;20198;-55
2022/12/27 03:18:50;;;;;;;56.93;27.87;;;;;;;;;;5094463;28;20214;-59
2022/12/27 03:27:38;;;;;;;38.63;19.83;;;;;;;;;;5094354;28;20230;-59
2022/12/27 03:33:14;;;;;;;34.10;19.40;;;;;;;;;;5094959;28;20202;-58
2022/12/27 03:38:58;;;;;;;43.73;23.10;;;;;;;;;;5094812;28;20259;-58
2022/12/27 03:44:25;;;;;;;37.40;21.30;;;;;;;;;;5093907;28;20572;-58
2022/12/27 03:47:00;;;;;;;37.20;19.60;;;;;;;;;;5094555;28;20612;-58
2022/12/27 03:49:44;;;;;;;42.17;20.17;;;;;;;;;;5093999;28;20190;-58
2022/12/27 03:52:32;;;;;;;42.07;19.43;;;;;;;;;;5094611;28;20198;-58
2022/12/27 03:55:00;;;;;;;32.63;18.13;;;;;;;;;;5093990;28;20195;-58
2022/12/27 03:57:28;;;;;;;36.80;18.57;;;;;;;;;;5093778;28;20202;-58
2022/12/27 03:59:55;;;;;;;33.70;18.73;;;;;;;;;;5093549;28;20697;-59
2022/12/27 04:02:23;;;;;;;66.10;31.33;;;;;;;;;;5094463;28;20267;-57
2022/12/27 04:04:50;;;;;;;45.40;22.93;;;;;;;;;;5094685;28;20202;-57
2022/12/27 04:07:18;;;;;;;42.57;20.47;;;;;;;;;;5094152;28;20671;-58
2022/12/27 04:34:42;;;;;;;42.80;22.47;;;;;;;;;;5081016;28;20203;-55
2022/12/27 04:37:17;;;;;;;40.17;22.07;;;;;;;;;;5088006;28;20632;-58
2022/12/27 04:56:22;;;;;;;44.27;21.43;;;;;;;;;;5090372;28;20199;-52
2022/12/27 05:04:21;;;;;;;40.53;19.57;;;;;;;;;;5081959;28;20200;-56
2022/12/27 05:06:48;;;;;;;59.60;26.70;;;;;;;;;;5083244;28;20234;-59
2022/12/27 05:14:47;;;;;;;32.97;17.67;;;;;;;;;;5091957;28;20226;-57
2022/12/27 05:17:14;;;;;;;29.87;16.17;;;;;;;;;;5092689;28;20222;-56
2022/12/27 05:19:41;;;;;;;25.40;15.17;;;;;;;;;;5092089;28;20248;-59
2022/12/27 05:27:40;;;;;;;22.27;11.93;;;;;;;;;;5091909;28;20242;-59
2022/12/27 05:30:07;;;;;;;34.57;17.20;;;;;;;;;;5091794;28;20242;-57
2022/12/27 05:32:35;;;;;;;19.83;11.47;;;;;;;;;;5089914;28;20237;-58
2022/12/27 05:35:02;;;;;;;18.27;10.33;;;;;;;;;;5095625;28;20222;-59
2022/12/27 05:37:29;;;;;;;18.57;9.87;;;;;;;;;;5095465;28;20674;-60
2022/12/27 05:39:56;;;;;;;17.73;9.27;;;;;;;;;;5095355;28;20305;-58
2022/12/27 05:42:23;;;;;;;17.90;9.47;;;;;;;;;;5095423;28;20603;-59
2022/12/27 05:44:50;;;;;;;12.40;8.37;;;;;;;;;;5092122;28;20222;-55
2022/12/27 05:47:17;;;;;;;18.83;8.80;;;;;;;;;;5088445;28;20229;-57
2022/12/27 05:49:44;;;;;;;11.20;6.73;;;;;;;;;;5094307;28;20219;-61
2022/12/27 05:52:12;;;;;;;9.60;6.43;;;;;;;;;;5095774;28;20226;-57
2022/12/27 05:54:39;;;;;;;12.77;7.57;;;;;;;;;;5092951;28;20218;-57
2022/12/27 05:57:06;;;;;;;18.20;9.63;;;;;;;;;;5095945;28;20222;-58
2022/12/27 05:59:33;;;;;;;13.40;7.30;;;;;;;;;;5094484;28;20283;-58
2022/12/27 06:02:00;;;;;;;7.53;4.10;;;;;;;;;;5095625;28;20611;-58
2022/12/27 06:04:27;;;;;;;9.03;3.60;;;;;;;;;;5095672;28;20280;-59
2022/12/27 06:06:55;;;;;;;6.80;4.33;;;;;;;;;;5095412;28;20265;-57
2022/12/27 06:09:22;;;;;;;7.70;3.57;;;;;;;;;;5096228;28;20229;-58
2022/12/27 06:11:49;;;;;;;6.27;4.20;;;;;;;;;;5095630;28;20269;-58
2022/12/27 06:14:16;;;;;;;3.97;2.87;;;;;;;;;;5090737;28;20218;-57
2022/12/27 06:16:43;;;;;;;4.07;2.73;;;;;;;;;;5094301;28;20226;-60
2022/12/27 06:19:10;;;;;;;2.97;2.50;;;;;;;;;;5095599;28;20226;-59
2022/12/27 06:21:38;;;;;;;3.70;2.80;;;;;;;;;;5088313;28;20211;-59
2022/12/27 06:24:05;;;;;;;2.50;2.07;;;;;;;;;;5088776;28;20275;-60
2022/12/27 06:26:32;;;;;;;5.80;3.07;;;;;;;;;;5095291;28;20245;-59
2022/12/27 06:29:00;;;;;;;4.70;2.50;;;;;;;;;;5095742;28;20222;-60
2022/12/27 06:31:27;;;;;;;3.83;2.90;;;;;;;;;;5094263;28;20230;-62
2022/12/27 06:33:54;;;;;;;3.00;2.60;;;;;;;;;;5095493;28;20227;-58
2022/12/27 06:36:25;;;;;;;3.77;2.90;;;;;;;;;;5095099;28;20276;-57
2022/12/27 06:38:52;;;;;;;4.53;3.20;;;;;;;;;;5095215;28;20276;-57
2022/12/27 06:41:20;;;;;;;4.57;3.20;;;;;;;;;;5095228;28;20241;-59
2022/12/27 06:43:47;;;;;;;4.03;2.87;;;;;;;;;;5094467;28;21136;-58
2022/12/27 06:46:16;;;;;;;5.40;3.47;;;;;;;;;;5095170;28;20284;-58
2022/12/27 06:48:47;;;;;;;4.30;3.43;;;;;;;;;;5095423;28;20317;-58
2022/12/27 06:51:16;;;;;;;8.77;5.17;;;;;;;;;;5094761;28;20219;-56
2022/12/27 06:53:45;;;;;;;7.57;4.30;;;;;;;;;;5094925;28;20230;-60
2022/12/27 06:56:18;;;;;;;12.30;7.17;;;;;;;;;;5093919;28;20291;-56
2022/12/27 06:58:46;;;;;;;6.83;4.83;;;;;;;;;;5094890;28;20229;-56
2022/12/27 07:01:25;;;;;;;5.43;3.40;;;;;;;;;;5094697;28;20272;-58
2022/12/27 07:03:58;;;;;;;4.70;3.30;;;;;;;;;;5094743;28;20222;-59
2022/12/27 07:06:27;;;;;;;5.40;3.33;;;;;;;;;;5093957;28;20227;-58
2022/12/27 07:08:55;;;;;;;6.23;4.03;;;;;;;;;;5094481;28;20292;-57
2022/12/27 07:11:22;;;;;;;9.07;3.37;;;;;;;;;;5094459;28;20223;-59
2022/12/27 07:13:53;;;;;;;5.90;3.47;;;;;;;;;;5094564;28;20242;-58
2022/12/27 07:16:24;;;;;;;6.27;3.83;;;;;;;;;;5094787;28;20533;-58
2022/12/27 07:18:53;;;;;;;4.60;3.40;;;;;;;;;;5094556;28;20238;-59
2022/12/27 07:21:22;;;;;;;6.10;4.33;;;;;;;;;;5087739;28;20292;-59
2022/12/27 07:23:49;;;;;;;4.73;4.20;;;;;;;;;;5094341;28;20310;-56
2022/12/27 07:26:20;;;;;;;10.70;5.37;;;;;;;;;;5094304;28;20249;-56
2022/12/27 07:28:47;;;;;;;6.17;3.83;;;;;;;;;;5093899;28;20249;-59
2022/12/27 07:31:18;;;;;;;9.87;3.90;;;;;;;;;;5092587;27;20237;-59
2022/12/27 07:33:45;;;;;;;6.43;3.70;;;;;;;;;;5093309;28;20340;-65
2022/12/27 07:36:15;;;;;;;4.83;3.50;;;;;;;;;;5092142;28;20702;-62
2022/12/27 07:38:42;;;;;;;5.80;2.90;;;;;;;;;;5094116;28;20219;-58
2022/12/27 07:41:11;;;;;;;10.63;3.20;;;;;;;;;;5093769;28;20239;-60
2022/12/27 07:43:38;;;;;;;4.53;2.50;;;;;;;;;;5093731;28;20560;-60
2022/12/27 07:46:08;;;;;;;5.67;2.20;;;;;;;;;;5093637;28;20283;-59
2022/12/27 07:48:36;;;;;;;7.33;2.80;;;;;;;;;;5093159;28;20241;-65
2022/12/27 07:51:04;;;;;;;9.47;3.07;;;;;;;;;;5093199;28;20268;-58
2022/12/27 07:53:31;;;;;;;11.37;3.13;;;;;;;;;;5093119;28;20626;-59
2022/12/27 07:56:04;;;;;;;6.80;3.67;;;;;;;;;;5092997;28;20695;-59
2022/12/27 07:58:35;;;;;;;7.97;3.73;;;;;;;;;;5093894;28;20325;-59
2022/12/27 08:01:03;;;;;;;10.00;3.43;;;;;;;;;;5094103;28;20226;-59
2022/12/27 08:03:30;;;;;;;5.70;3.43;;;;;;;;;;5093681;28;20276;-60
2022/12/27 08:05:58;;;;;;;10.97;4.87;;;;;;;;;;5092973;28;20219;-60
2022/12/27 08:08:31;;;;;;;14.07;3.43;;;;;;;;;;5093529;28;20334;-60
2022/12/27 08:10:58;;;;;;;8.27;3.20;;;;;;;;;;5093811;28;20234;-61
2022/12/27 08:13:32;;;;;;;9.80;4.90;;;;;;;;;;5093197;28;20608;-59
2022/12/27 08:15:59;;;;;;;9.80;3.80;;;;;;;;;;5093220;28;20279;-59
2022/12/27 08:18:26;;;;;;;13.37;5.97;;;;;;;;;;5093089;28;20767;-62
2022/12/27 08:20:54;;;;;;;13.67;4.80;;;;;;;;;;5093205;28;20223;-58
2022/12/27 08:23:21;;;;;;;21.97;9.17;;;;;;;;;;5093323;28;20242;-65
2022/12/27 08:25:48;;;;;;;26.37;12.27;;;;;;;;;;5092914;28;20242;-59
2022/12/27 08:28:17;;;;;;;43.00;18.07;;;;;;;;;;5093453;28;20239;-60
2022/12/27 08:30:45;;;;;;;23.77;9.53;;;;;;;;;;5093343;28;20222;-59
2022/12/27 08:33:14;;;;;;;28.33;11.57;;;;;;;;;;5093387;28;20230;-60
2022/12/27 08:35:43;;;;;;;22.27;6.17;;;;;;;;;;5092248;28;20226;-61
2022/12/27 08:38:20;;;;;;;13.33;4.03;;;;;;;;;;5093338;28;20222;-60
2022/12/27 08:40:47;;;;;;;21.07;8.27;;;;;;;;;;5093320;28;20276;-61
2022/12/27 08:43:14;;;;;;;14.50;4.07;;;;;;;;;;5103229;27;20218;-60
2022/12/27 08:45:42;;;;;;;9.80;4.40;;;;;;;;;;5113191;28;20561;-60
2022/12/27 08:48:09;;;;;;;11.33;3.60;;;;;;;;;;5113363;27;20254;-59
2022/12/27 08:50:36;;;;;;;12.20;3.47;;;;;;;;;;5114307;28;20201;-60
2022/12/27 08:53:04;;;;;;;8.77;2.90;;;;;;;;;;5114362;28;20571;-60
2022/12/27 08:55:32;;;;;;;20.87;5.67;;;;;;;;;;5113998;28;20259;-60
2022/12/27 08:58:02;;;;;;;22.00;6.10;;;;;;;;;;5113860;28;20635;-61
2022/12/27 09:00:30;;;;;;;20.73;5.17;;;;;;;;;;5112657;28;20259;-62
2022/12/27 09:02:57;;;;;;;19.90;5.77;;;;;;;;;;5092021;28;20203;-62
2022/12/27 09:05:26;;;;;;;10.73;4.23;;;;;;;;;;5094529;28;20677;-60
2022/12/27 09:07:53;;;;;;;30.90;6.53;;;;;;;;;;5096559;28;20616;-60
2022/12/27 09:10:22;;;;;;;21.60;5.60;;;;;;;;;;5097646;28;20232;-60
2022/12/27 09:12:49;;;;;;;36.33;7.60;;;;;;;;;;5097751;28;20244;-60
2022/12/27 09:15:16;;;;;;;38.13;7.73;;;;;;;;;;5097072;28;20263;-61
2022/12/27 09:17:43;;;;;;;20.97;4.27;;;;;;;;;;5097454;28;20210;-59
2022/12/27 09:20:11;;;;;;;18.33;4.60;;;;;;;;;;5097680;28;20206;-60
2022/12/27 09:22:38;;;;;;;11.80;3.47;;;;;;;;;;5097425;28;20234;-60
2022/12/27 09:25:06;;;;;;;21.10;6.13;;;;;;;;;;5097057;28;20206;-61
2022/12/27 09:27:35;;;;;;;15.53;3.90;;;;;;;;;;5096810;28;20276;-60
2022/12/27 09:30:04;;;;;;;15.37;4.30;;;;;;;;;;5097104;28;20199;-59
2022/12/27 09:32:31;;;;;;;23.07;4.90;;;;;;;;;;5095942;28;20219;-59
2022/12/27 09:34:59;;;;;;;14.67;4.10;;;;;;;;;;5096681;28;20578;-59
2022/12/27 09:37:26;;;;;;;21.90;5.03;;;;;;;;;;5096936;28;20207;-61
2022/12/27 09:39:53;;;;;;;15.37;4.67;;;;;;;;;;5097264;28;20198;-60
2022/12/27 09:42:36;;;;;;;17.17;4.27;;;;;;;;;;5097276;28;20221;-60
2022/12/27 09:45:38;;;;;;;11.63;4.00;;;;;;;;;;5095693;28;20654;-60
2022/12/27 09:48:21;;;;;;;21.93;5.13;;;;;;;;;;5096204;28;20280;-60
2022/12/27 09:50:58;;;;;;;13.90;5.00;;;;;;;;;;5096162;28;20252;-59
2022/12/27 09:53:40;;;;;;;14.77;4.90;;;;;;;;;;5097044;28;20270;-59
2022/12/27 09:56:11;;;;;;;13.07;4.10;;;;;;;;;;5097115;28;20175;-61
2022/12/27 09:58:54;;;;;;;20.43;4.60;;;;;;;;;;5095618;28;20205;-60
2022/12/27 10:01:36;;;;;;;15.20;5.03;;;;;;;;;;5095682;28;20187;-60
2022/12/27 10:04:05;;;;;;;27.43;8.30;;;;;;;;;;5095739;28;20202;-60
2022/12/27 10:06:41;;;;;;;21.50;7.57;;;;;;;;;;5095648;28;20218;-59
2022/12/27 10:09:36;;;;;;;12.20;3.20;;;;;;;;;;5096889;28;20275;-56
2022/12/27 10:12:25;;;;;;;24.40;8.27;;;;;;;;;;5096468;28;20517;-60
2022/12/27 10:15:22;;;;;;;19.63;5.77;;;;;;;;;;5095556;28;20279;-61
2022/12/27 10:18:32;;;;;;;13.10;4.80;;;;;;;;;;5094763;28;20724;-60
2022/12/27 10:21:09;;;;;;;21.13;6.07;;;;;;;;;;5037577;28;20208;-59
2022/12/27 10:23:37;;;;;;;19.77;5.33;;;;;;;;;;5054103;28;20224;-59
2022/12/27 10:26:06;;;;;;;22.10;5.03;;;;;;;;;;5053833;28;20273;-58
2022/12/27 10:28:46;;;;;;;18.23;6.17;;;;;;;;;;5037642;28;20664;-59
2022/12/27 10:31:15;;;;;;;13.30;4.27;;;;;;;;;;5053889;28;20223;-59
2022/12/27 10:33:44;;;;;;;14.77;4.77;;;;;;;;;;5053940;28;20276;-58
2022/12/27 10:36:16;;;;;;;19.80;4.87;;;;;;;;;;5037567;28;20637;-57
2022/12/27 10:38:44;;;;;;;10.60;4.70;;;;;;;;;;5053989;28;20211;-60
2022/12/27 10:41:32;;;;;;;18.07;5.60;;;;;;;;;;5053733;28;20212;-59
2022/12/27 10:43:59;;;;;;;17.43;5.67;;;;;;;;;;5053847;28;20281;-59
2022/12/27 10:46:30;;;;;;;12.77;4.40;;;;;;;;;;5053439;28;20199;-59
2022/12/27 10:49:25;;;;;;;15.83;5.23;;;;;;;;;;5037545;28;20235;-60
2022/12/27 10:51:56;;;;;;;14.67;4.83;;;;;;;;;;5051710;28;20306;-60
2022/12/27 10:54:28;;;;;;;13.17;3.80;;;;;;;;;;5052802;28;20192;-60
2022/12/27 10:56:56;;;;;;;19.93;5.23;;;;;;;;;;5072531;28;20198;-61
2022/12/27 10:59:26;;;;;;;19.07;5.50;;;;;;;;;;5094481;28;20222;-60
2022/12/27 11:01:59;;;;;;;8.70;5.23;;;;;;;;;;5095389;28;20230;-59
2022/12/27 11:04:28;;;;;;;14.87;5.70;;;;;;;;;;5095674;28;20523;-60
2022/12/27 11:07:01;;;;;;;14.13;5.27;;;;;;;;;;5095691;28;20264;-60
2022/12/27 11:09:42;;;;;;;16.77;4.60;;;;;;;;;;5095635;28;20195;-60
2022/12/27 11:12:27;;;;;;;13.03;4.03;;;;;;;;;;5094171;28;20210;-60
2022/12/27 11:15:10;;;;;;;16.00;5.20;;;;;;;;;;5095032;28;20611;-60
2022/12/27 11:17:40;;;;;;;20.07;4.70;;;;;;;;;;5095479;28;20212;-60
2022/12/27 11:20:13;;;;;;;15.43;4.53;;;;;;;;;;5094397;28;20198;-60
2022/12/27 11:22:47;;;;;;;15.07;5.43;;;;;;;;;;5094671;28;20238;-59
2022/12/27 11:25:15;;;;;;;21.80;5.17;;;;;;;;;;5095286;28;20187;-60
2022/12/27 11:27:50;;;;;;;23.90;7.57;;;;;;;;;;5095451;28;20202;-60
2022/12/27 11:30:24;;;;;;;16.97;5.53;;;;;;;;;;5093780;28;20201;-62
2022/12/27 11:32:51;;;;;;;13.37;4.73;;;;;;;;;;5094379;28;20205;-60
2022/12/27 11:35:20;;;;;;;18.13;4.50;;;;;;;;;;5094549;28;20234;-60
2022/12/27 11:37:48;;;;;;;18.20;5.77;;;;;;;;;;5094190;28;20202;-62
2022/12/27 11:40:26;;;;;;;11.13;4.53;;;;;;;;;;5094025;28;20248;-65
2022/12/27 11:43:04;;;;;;;17.87;7.07;;;;;;;;;;5074338;28;20194;-60
2022/12/27 11:45:38;;;;;;;25.60;9.63;;;;;;;;;;5074300;28;20542;-60
2022/12/27 11:48:11;;;;;;;19.43;6.87;;;;;;;;;;5074545;28;20245;-65
2022/12/27 11:50:39;;;;;;;11.20;4.97;;;;;;;;;;5093655;28;20199;-59
2022/12/27 11:53:06;;;;;;;17.67;6.20;;;;;;;;;;5093884;28;20206;-59
2022/12/27 11:55:45;;;;;;;24.47;7.33;;;;;;;;;;5094662;28;20195;-60
2022/12/27 11:58:42;;;;;;;21.67;7.23;;;;;;;;;;5094714;28;20619;-60
2022/12/27 12:01:31;;;;;;;36.60;9.43;;;;;;;;;;5094410;28;20206;-60
2022/12/27 12:04:32;;;;;;;28.60;9.97;;;;;;;;;;5094032;28;20183;-61
2022/12/27 12:07:02;;;;;;;29.57;9.87;;;;;;;;;;5094848;28;20178;-60
2022/12/27 12:10:04;;;;;;;20.87;6.80;;;;;;;;;;5089942;28;20245;-59
2022/12/27 12:13:03;;;;;;;33.17;11.37;;;;;;;;;;5093488;28;20244;-60
2022/12/27 12:15:51;;;;;;;21.00;7.47;;;;;;;;;;5090904;28;20209;-60
2022/12/27 12:18:34;;;;;;;22.90;7.17;;;;;;;;;;5094299;28;20260;-59
2022/12/27 12:21:19;;;;;;;28.10;8.63;;;;;;;;;;5094190;28;20183;-61
2022/12/27 12:24:17;;;;;;;27.40;9.40;;;;;;;;;;5094145;28;20334;-60
2022/12/27 12:27:06;;;;;;;23.83;9.33;;;;;;;;;;5094808;28;20565;-59
2022/12/27 12:29:51;;;;;;;27.70;10.13;;;;;;;;;;5094425;28;20639;-57
2022/12/27 12:32:24;;;;;;;49.90;12.43;;;;;;;;;;5094232;28;20190;-59
2022/12/27 12:35:13;;;;;;;40.07;11.87;;;;;;;;;;5093990;28;20194;-59
2022/12/27 12:37:46;;;;;;;35.83;12.17;;;;;;;;;;5092912;28;20198;-60
2022/12/27 12:40:31;;;;;;;26.07;10.67;;;;;;;;;;5093546;28;20678;-59
2022/12/27 12:43:33;;;;;;;31.10;10.53;;;;;;;;;;5093276;28;20206;-59
2022/12/27 12:46:27;;;;;;;52.83;25.53;;;;;;;;;;5094177;28;20202;-60
2022/12/27 12:49:28;;;;;;;28.67;10.23;;;;;;;;;;5092903;28;20688;-59
2022/12/27 12:51:55;;;;;;;21.67;7.50;;;;;;;;;;5093919;28;20537;-60
2022/12/27 12:54:32;;;;;;;27.97;8.10;;;;;;;;;;5093610;28;20244;-60
2022/12/27 12:57:17;;;;;;;19.10;7.57;;;;;;;;;;5094025;28;20283;-60
2022/12/27 13:00:08;;;;;;;24.33;7.30;;;;;;;;;;5093990;28;20199;-61
2022/12/27 13:02:35;;;;;;;22.43;6.87;;;;;;;;;;5092899;28;20198;-60
2022/12/27 13:05:22;;;;;;;24.33;7.63;;;;;;;;;;5093386;28;20639;-60
2022/12/27 13:07:53;;;;;;;21.43;7.47;;;;;;;;;;5092965;28;20520;-60
2022/12/27 13:10:31;;;;;;;18.10;7.47;;;;;;;;;;5092725;28;20217;-60
2022/12/27 13:13:05;;;;;;;16.60;6.30;;;;;;;;;;5093766;28;20197;-60
2022/12/27 13:15:37;;;;;;;15.33;5.37;;;;;;;;;;5093123;28;20191;-60
2022/12/27 13:18:25;;;;;;;22.43;7.43;;;;;;;;;;5092964;28;20508;-59
2022/12/27 13:21:02;;;;;;;14.63;6.03;;;;;;;;;;5092670;28;20262;-59
2022/12/27 13:23:35;;;;;;;18.53;6.20;;;;;;;;;;5093322;28;20601;-60
2022/12/27 13:26:24;;;;;;;17.03;5.67;;;;;;;;;;5093648;28;20646;-59
2022/12/27 13:29:36;;;;;;;21.63;6.90;;;;;;;;;;5089704;28;20215;-59
2022/12/27 13:32:12;;;;;;;14.60;5.47;;;;;;;;;;5086375;28;20206;-58
2022/12/27 13:35:13;;;;;;;10.67;4.73;;;;;;;;;;5093060;28;20194;-61
2022/12/27 13:37:49;;;;;;;15.47;4.57;;;;;;;;;;5097187;28;20231;-59
2022/12/27 13:40:38;;;;;;;17.00;5.30;;;;;;;;;;5086981;28;20237;-59
2022/12/27 13:43:35;;;;;;;18.13;6.60;;;;;;;;;;5092362;28;20288;-60
2022/12/27 13:46:31;;;;;;;100.77;36.60;;;;;;;;;;5091514;28;20206;-59
2022/12/27 13:49:38;;;;;;;18.17;7.90;;;;;;;;;;5091897;28;20231;-60
2022/12/27 13:52:13;;;;;;;13.90;5.93;;;;;;;;;;5088090;28;20230;-57
2022/12/27 13:54:58;;;;;;;14.30;5.63;;;;;;;;;;5094704;28;20317;-60
2022/12/27 13:58:15;;;;;;;16.43;5.67;;;;;;;;;;5096210;28;20563;-61
2022/12/27 14:00:50;;;;;;;16.33;5.03;;;;;;;;;;5080538;28;20226;-56
2022/12/27 14:03:39;;;;;;;15.17;4.60;;;;;;;;;;5093264;28;20295;-59
2022/12/27 14:06:18;;;;;;;13.37;4.77;;;;;;;;;;5093617;28;20277;-58
2022/12/27 14:09:06;;;;;;;10.50;4.37;;;;;;;;;;5084169;28;20231;-59
2022/12/27 14:12:07;;;;;;;13.63;5.73;;;;;;;;;;5073071;28;20632;-59
2022/12/27 14:14:36;;;;;;;13.00;4.23;;;;;;;;;;5056903;28;20790;-63
2022/12/27 14:17:18;;;;;;;17.73;5.50;;;;;;;;;;5072704;28;20631;-59
2022/12/27 14:19:54;;;;;;;13.90;5.80;;;;;;;;;;5073309;28;20222;-59
2022/12/27 14:22:24;;;;;;;15.47;5.63;;;;;;;;;;5072292;28;20237;-58
2022/12/27 14:25:06;;;;;;;10.83;5.17;;;;;;;;;;5056578;28;20230;-59
2022/12/27 14:27:35;;;;;;;15.10;5.20;;;;;;;;;;5073101;28;20231;-58
2022/12/27 14:30:21;;;;;;;12.73;5.47;;;;;;;;;;5073117;28;20553;-57
2022/12/27 14:33:09;;;;;;;18.67;4.50;;;;;;;;;;5055793;28;20218;-57
2022/12/27 14:36:04;;;;;;;14.40;4.77;;;;;;;;;;5072420;28;20280;-59
2022/12/27 14:39:07;;;;;;;10.77;5.17;;;;;;;;;;5095347;28;20545;-57
2022/12/27 14:42:11;;;;;;;15.10;5.47;;;;;;;;;;5094368;28;20551;-51
2022/12/27 14:44:57;;;;;;;16.10;5.57;;;;;;;;;;5094979;28;20601;-53
2022/12/27 14:47:49;;;;;;;29.20;7.27;;;;;;;;;;5094945;28;20268;-59
2022/12/27 14:50:52;;;;;;;27.50;11.43;;;;;;;;;;5095069;28;20238;-53
2022/12/27 14:53:28;;;;;;;12.40;4.63;;;;;;;;;;5093867;28;20234;-60
2022/12/27 14:56:11;;;;;;;15.57;4.97;;;;;;;;;;5095027;28;20237;-52
2022/12/27 14:58:46;;;;;;;15.70;5.20;;;;;;;;;;5095110;27;20347;-57
2022/12/27 15:01:18;;;;;;;16.23;4.90;;;;;;;;;;5095207;28;20260;-54
2022/12/27 15:03:53;;;;;;;22.63;8.53;;;;;;;;;;5094022;27;20222;-56
2022/12/27 15:06:40;;;;;;;22.47;6.67;;;;;;;;;;5094631;28;20609;-58
2022/12/27 15:09:30;;;;;;;16.73;5.97;;;;;;;;;;5094941;27;20234;-59
2022/12/27 15:12:03;;;;;;;22.27;7.03;;;;;;;;;;5093627;28;20612;-60
2022/12/27 15:14:40;;;;;;;14.27;5.40;;;;;;;;;;5093381;28;20591;-58
2022/12/27 15:17:18;;;;;;;13.03;4.87;;;;;;;;;;5094228;28;20317;-55
2022/12/27 15:20:04;;;;;;;13.90;5.00;;;;;;;;;;5093985;28;20974;-59
2022/12/27 15:22:48;;;;;;;5.93;2.93;;;;;;;;;;5094263;28;20234;-61
2022/12/27 15:25:27;;;;;;;11.90;4.07;;;;;;;;;;5094090;28;20272;-57
2022/12/27 15:28:15;;;;;;;9.93;4.93;;;;;;;;;;5094202;28;20218;-59
2022/12/27 15:30:50;;;;;;;6.90;4.07;;;;;;;;;;5094091;28;20288;-61
2022/12/27 15:33:37;;;;;;;10.33;5.00;;;;;;;;;;5093580;28;20217;-62
2022/12/27 15:36:14;;;;;;;12.63;5.80;;;;;;;;;;5093782;28;20532;-62
2022/12/27 15:38:52;;;;;;;16.27;6.73;;;;;;;;;;5093050;28;20218;-56
2022/12/27 15:41:22;;;;;;;13.57;5.60;;;;;;;;;;5093502;28;20318;-57
2022/12/27 15:44:07;;;;;;;18.97;6.10;;;;;;;;;;5073688;28;20370;-57
2022/12/27 15:47:04;;;;;;;23.43;6.47;;;;;;;;;;5073425;28;20230;-61
2022/12/27 15:49:31;;;;;;;23.53;7.73;;;;;;;;;;5073112;28;20321;-54
2022/12/27 15:52:17;;;;;;;22.30;6.20;;;;;;;;;;5085333;28;20222;-49
2022/12/27 15:55:18;;;;;;;45.57;16.30;;;;;;;;;;5092509;28;20311;-51
2022/12/27 15:57:51;;;;;;;32.93;20.10;;;;;;;;;;5092556;28;20229;-59
2022/12/27 16:00:21;;;;;;;20.43;6.70;;;;;;;;;;5093567;28;20254;-59
2022/12/27 16:02:49;;;;;;;12.83;5.03;;;;;;;;;;5089401;28;20226;-59
2022/12/27 16:05:20;;;;;;;21.27;6.70;;;;;;;;;;5091871;28;20230;-59
2022/12/27 16:07:51;;;;;;;15.93;5.63;;;;;;;;;;5092468;28;20721;-58
2022/12/27 16:10:30;;;;;;;18.23;5.97;;;;;;;;;;5093111;28;20281;-58
2022/12/27 16:13:03;;;;;;;18.70;6.00;;;;;;;;;;5092926;28;20749;-60
2022/12/27 16:15:41;;;;;;;21.47;7.70;;;;;;;;;;5092196;28;20222;-58
2022/12/27 16:18:29;;;;;;;35.97;12.27;;;;;;;;;;5092701;28;20222;-58
2022/12/27 16:21:05;;;;;;;19.53;8.73;;;;;;;;;;5087633;28;20277;-56
2022/12/27 16:23:40;;;;;;;14.73;6.70;;;;;;;;;;5090412;28;20238;-62
2022/12/27 16:26:07;;;;;;;13.67;6.33;;;;;;;;;;5090567;27;20222;-61
2022/12/27 16:28:36;;;;;;;13.20;4.47;;;;;;;;;;5092107;28;20288;-60
2022/12/27 16:31:10;;;;;;;18.90;5.33;;;;;;;;;;5091522;28;20691;-62
2022/12/27 16:33:39;;;;;;;19.43;6.80;;;;;;;;;;5092124;28;20213;-67
2022/12/27 16:36:21;;;;;;;22.23;7.90;;;;;;;;;;5092415;28;20226;-57
2022/12/27 16:39:12;;;;;;;30.20;10.43;;;;;;;;;;5092560;28;20581;-59
2022/12/27 16:41:54;;;;;;;26.93;9.73;;;;;;;;;;5092643;28;20226;-60
2022/12/27 16:44:25;;;;;;;18.33;6.77;;;;;;;;;;5092381;28;20626;-57
2022/12/27 16:47:02;;;;;;;19.20;7.20;;;;;;;;;;5092107;28;20293;-60
2022/12/27 16:49:54;;;;;;;17.70;7.00;;;;;;;;;;5090862;28;20260;-56
2022/12/27 16:52:46;;;;;;;16.30;6.17;;;;;;;;;;5075062;28;20659;-57
2022/12/27 16:55:19;;;;;;;21.43;6.80;;;;;;;;;;5090553;28;20221;-56
2022/12/27 16:57:48;;;;;;;26.97;11.27;;;;;;;;;;5089608;28;21023;-54
2022/12/27 17:00:21;;;;;;;37.73;15.87;;;;;;;;;;5092908;28;20218;-53